Time;durP1;ratioP1;P1;durP2;ratioP2;P2;SDS_P1;SDS_P2;PMS_P1;PMS_P2;Temp;Humidity;BMP_temperature;BMP_pressure;BME280_temperature;BME280_humidity;BME280_pressure;Samples;Min_cycle;Max_cycle;Signal;HPM_P1;HPM_P2
2022/11/20 00:01:54;;;;;;;37.33;18.42;;;;;;;2.03;67.00;98889.31;4150588;84;44444;-73
2022/11/20 00:07:56;;;;;;;38.65;19.27;;;;;;;1.76;67.37;98882.26;4149947;84;44524;-73
2022/11/20 00:14:00;;;;;;;39.58;18.25;;;;;;;1.85;66.94;98877.70;4164152;84;44473;-73
2022/11/20 00:20:02;;;;;;;46.50;20.97;;;;;;;1.69;66.83;98873.36;4145989;84;29125;-72
2022/11/20 00:26:07;;;;;;;40.40;19.87;;;;;;;1.76;67.17;98872.46;4159202;83;43319;-72
2022/11/20 00:32:08;;;;;;;29.35;14.25;;;;;;;1.61;66.39;98864.45;4149892;83;28589;-73
2022/11/20 00:38:09;;;;;;;40.78;19.82;;;;;;;1.52;66.09;98872.17;4169285;84;43683;-74
2022/11/20 00:44:11;;;;;;;39.05;18.62;;;;;;;1.46;66.73;98871.05;4174487;82;44515;-75
2022/11/20 00:50:12;;;;;;;44.38;20.32;;;;;;;1.27;65.81;98866.20;4154279;83;43814;-75
2022/11/20 00:56:17;;;;;;;41.55;20.43;;;;;;;1.34;66.89;98864.48;4187117;83;43730;-74
2022/11/20 01:02:18;;;;;;;40.37;19.73;;;;;;;1.30;66.07;98860.55;4172389;84;28575;-75
2022/11/20 01:08:20;;;;;;;41.40;19.37;;;;;;;1.22;65.85;98850.31;4090363;85;44049;-74
2022/11/20 01:14:21;;;;;;;39.73;19.42;;;;;;;1.38;66.29;98838.79;4164666;83;43732;-74
2022/11/20 01:20:23;;;;;;;40.50;18.85;;;;;;;1.28;65.29;98847.47;4087523;85;44488;-74
2022/11/20 01:26:29;;;;;;;39.85;19.52;;;;;;;1.20;65.40;98842.25;4099241;85;44496;-76
2022/11/20 01:32:30;;;;;;;43.75;20.55;;;;;;;1.25;65.71;98840.72;4150583;83;43824;-75
2022/11/20 01:38:31;;;;;;;43.58;20.30;;;;;;;1.19;65.47;98836.11;4176596;84;43765;-75
2022/11/20 01:44:56;;;;;;;39.27;18.80;;;;;;;1.26;65.09;98837.55;4089166;85;44470;-76
2022/11/20 01:50:59;;;;;;;28.97;13.70;;;;;;;0.89;65.88;98835.14;4095590;85;28543;-75
2022/11/20 01:57:01;;;;;;;43.10;22.17;;;;;;;1.28;64.76;98825.47;4093680;85;50743;-75
2022/11/20 02:03:11;;;;;;;51.40;24.98;;;;;;;0.86;65.78;98824.88;4030586;86;43753;-75
2022/11/20 02:09:14;;;;;;;46.95;21.48;;;;;;;0.70;67.56;98834.55;4035551;86;43745;-76
2022/11/20 02:15:16;;;;;;;44.10;20.43;;;;;;;0.90;65.72;98826.19;4051183;86;43782;-75
2022/11/20 02:21:47;;;;;;;43.73;21.37;;;;;;;0.92;64.78;98840.08;4045877;86;43780;-75
2022/11/20 02:27:49;;;;;;;45.80;22.02;;;;;;;1.01;64.51;98847.47;4056752;86;43879;-75
2022/11/20 02:33:57;;;;;;;41.37;20.15;;;;;;;0.73;64.12;98852.72;4101249;84;43715;-74
2022/11/20 02:40:01;;;;;;;52.43;23.75;;;;;;;0.66;64.23;98855.72;4176957;84;44075;-74
2022/11/20 02:46:02;;;;;;;49.83;22.67;;;;;;;0.64;65.20;98847.14;4194024;84;44514;-75
2022/11/20 02:52:04;;;;;;;46.92;23.25;;;;;;;0.78;64.14;98844.27;4134216;84;43861;-75
2022/11/20 02:58:05;;;;;;;46.58;22.25;;;;;;;0.79;63.87;98843.27;4132375;84;44105;-75
2022/11/20 03:04:06;;;;;;;47.55;22.77;;;;;;;0.65;63.48;98846.97;4129334;84;44465;-75
2022/11/20 03:10:08;;;;;;;49.13;22.90;;;;;;;0.55;63.36;98835.77;4137348;84;44503;-75
2022/11/20 03:16:17;;;;;;;49.63;24.02;;;;;;;0.47;63.67;98833.98;4137875;84;44487;-74
2022/11/20 03:22:19;;;;;;;47.40;23.60;;;;;;;0.54;63.17;98841.55;4131212;84;44489;-74
2022/11/20 03:28:20;;;;;;;56.83;25.97;;;;;;;0.36;62.93;98829.03;4141695;84;43266;-74
2022/11/20 03:34:21;;;;;;;51.85;24.15;;;;;;;0.71;63.10;98823.45;4131908;84;43975;-75
2022/11/20 03:40:23;;;;;;;52.23;24.55;;;;;;;0.65;61.79;98817.87;4132495;85;44090;-75
2022/11/20 03:46:25;;;;;;;56.98;25.20;;;;;;;0.40;63.38;98818.45;4144709;83;44082;-76
2022/11/20 03:52:26;;;;;;;51.45;23.98;;;;;;;0.41;63.70;98811.66;4126213;84;43814;-75
2022/11/20 03:58:28;;;;;;;60.20;26.17;;;;;;;0.31;63.48;98818.16;4130906;84;43246;-75
2022/11/20 04:04:29;;;;;;;59.48;26.27;;;;;;;0.66;63.14;98817.35;4131935;84;43028;-75
2022/11/20 04:10:30;;;;;;;59.58;26.20;;;;;;;0.61;62.65;98806.47;4181558;83;42046;-74
2022/11/20 04:16:36;;;;;;;52.60;25.02;;;;;;;0.34;62.85;98810.70;4122816;84;44003;-75
2022/11/20 04:22:37;;;;;;;58.02;25.95;;;;;;;0.19;62.68;98814.55;4119142;84;43226;-75
2022/11/20 04:28:40;;;;;;;57.48;25.70;;;;;;;0.43;62.90;98810.69;4111514;85;43262;-75
2022/11/20 04:34:41;;;;;;;54.70;25.72;;;;;;;0.30;62.47;98808.58;4124241;84;43274;-75
2022/11/20 04:40:44;;;;;;;54.05;25.70;;;;;;;0.54;62.53;98801.86;4115297;85;43259;-76
2022/11/20 04:46:45;;;;;;;54.48;24.98;;;;;;;0.42;62.51;98799.27;4189571;83;44084;-76
2022/11/20 04:52:47;;;;;;;53.87;24.57;;;;;;;0.38;61.83;98796.14;4116462;85;44125;-75
2022/11/20 04:58:48;;;;;;;53.63;24.10;;;;;;;0.20;62.26;98793.72;4191047;82;44151;-76
2022/11/20 05:04:49;;;;;;;52.27;24.27;;;;;;;0.11;62.20;98794.73;4170323;83;43891;-75
2022/11/20 05:10:51;;;;;;;58.63;24.80;;;;;;;0.14;62.20;98789.10;4154074;84;44172;-76
2022/11/20 05:16:52;;;;;;;55.23;24.47;;;;;;;0.00;62.70;98791.97;4154306;84;44226;-76
2022/11/20 05:22:58;;;;;;;56.08;25.25;;;;;;;0.18;62.37;98793.55;4171332;84;43706;-76
2022/11/20 05:29:00;;;;;;;56.18;25.17;;;;;;;0.18;62.31;98786.95;4112984;85;44187;-77
2022/11/20 05:35:01;;;;;;;58.08;24.67;;;;;;;0.16;61.92;98782.33;4170249;84;44077;-76
2022/11/20 05:41:13;;;;;;;62.78;26.95;;;;;;;0.05;61.84;98780.86;4144290;84;43372;-76
2022/11/20 05:47:16;;;;;;;57.75;27.32;;;;;;;0.01;62.58;98771.15;4177162;83;43720;-77
2022/11/20 05:53:18;;;;;;;55.45;25.62;;;;;;;-0.15;63.12;98757.48;4138233;84;43281;-77
2022/11/20 05:59:19;;;;;;;59.00;26.10;;;;;;;-0.03;63.92;98762.73;4191746;85;43287;-77
2022/11/20 06:05:21;;;;;;;56.48;25.60;;;;;;;0.11;62.84;98761.69;4154702;83;43264;-76
2022/11/20 06:11:22;;;;;;;57.58;25.82;;;;;;;0.26;62.95;98767.93;4197560;83;43432;-76
2022/11/20 06:17:23;;;;;;;52.05;25.50;;;;;;;0.32;62.01;98774.36;4169007;84;43487;-75
2022/11/20 06:23:24;;;;;;;52.90;23.73;;;;;;;0.24;62.12;98765.93;4150051;84;44107;-75
2022/11/20 06:29:26;;;;;;;52.65;25.68;;;;;;;0.13;62.18;98775.55;4158256;84;43335;-76
2022/11/20 06:35:27;;;;;;;53.23;25.10;;;;;;;0.71;61.17;98758.62;4153639;84;43660;-75
2022/11/20 06:41:29;;;;;;;54.38;24.80;;;;;;;0.62;61.63;98757.84;4156831;85;43695;-76
2022/11/20 06:47:30;;;;;;;57.23;25.30;;;;;;;0.74;61.69;98741.89;4161648;84;44085;-76
2022/11/20 06:53:31;;;;;;;58.58;25.75;;;;;;;1.19;60.96;98746.06;4168424;84;43230;-77
2022/11/20 06:59:33;;;;;;;48.02;24.07;;;;;;;1.36;61.15;98747.27;4151174;83;44448;-80
2022/11/20 07:05:35;;;;;;;56.55;25.10;;;;;;;1.52;61.10;98742.33;4160681;84;44191;-80
2022/11/20 07:11:37;;;;;;;48.58;23.50;;;;;;;1.71;61.33;98746.28;4169063;83;44443;-81
2022/11/20 07:17:38;;;;;;;51.50;24.15;;;;;;;1.41;62.07;98755.49;4101067;85;43869;-79
2022/11/20 07:23:40;;;;;;;50.73;23.92;;;;;;;1.61;62.23;98758.45;4115416;85;43612;-81
2022/11/20 07:29:41;;;;;;;51.73;24.67;;;;;;;1.56;62.35;98751.55;4168666;83;44146;-81
2022/11/20 07:35:43;;;;;;;57.90;24.95;;;;;;;1.60;62.65;98747.53;4171866;83;44097;-77
2022/11/20 07:41:45;;;;;;;67.22;29.45;;;;;;;1.64;63.28;98755.95;4169582;83;44101;-77
2022/11/20 07:47:46;;;;;;;84.95;32.58;;;;;;;1.85;65.16;98765.03;4100627;85;43089;-76
2022/11/20 07:53:47;;;;;;;74.95;29.32;;;;;;;2.61;64.57;98771.97;4144923;83;44176;-80
2022/11/20 07:59:49;;;;;;;75.50;30.68;;;;;;;2.86;64.36;98770.30;4163269;83;43768;-80
2022/11/20 08:05:50;;;;;;;85.38;34.13;;;;;;;2.47;65.54;98777.61;4164254;83;43643;-79
2022/11/20 08:18:12;;;;;;;81.60;32.25;;;;;;;2.84;66.00;98768.34;4102436;85;43088;-81
2022/11/20 08:24:13;;;;;;;94.85;35.30;;;;;;;2.76;65.49;98767.95;4154724;84;44189;-79
2022/11/20 08:30:14;;;;;;;83.22;33.08;;;;;;;2.54;67.21;98767.91;4141484;84;43111;-81
2022/11/20 08:36:17;;;;;;;88.12;34.30;;;;;;;2.65;67.61;98756.81;4150995;84;44156;-81
2022/11/20 08:42:19;;;;;;;86.25;34.60;;;;;;;2.92;67.58;98757.12;4143330;84;44360;-82
2022/11/20 08:48:22;;;;;;;93.42;34.67;;;;;;;2.91;67.04;98746.16;4181066;83;44181;-78
2022/11/20 08:54:23;;;;;;;91.08;34.90;;;;;;;2.87;67.37;98752.86;4175737;83;44103;-77
2022/11/20 09:00:29;;;;;;;81.78;33.40;;;;;;;2.90;67.83;98749.82;4176815;83;43039;-79
2022/11/20 09:06:31;;;;;;;86.08;35.10;;;;;;;3.34;66.26;98741.36;4171207;84;44439;-75
2022/11/20 09:12:32;;;;;;;88.52;34.15;;;;;;;3.65;65.20;98738.53;4114849;85;28539;-80
2022/11/20 09:18:37;;;;;;;90.67;35.05;;;;;;;3.82;64.45;98737.72;4149877;83;44486;-75
2022/11/20 09:24:39;;;;;;;88.30;34.85;;;;;;;3.79;65.74;98728.81;4139036;84;28563;-77
2022/11/20 09:30:41;;;;;;;80.10;33.25;;;;;;;4.15;65.40;98739.26;4155681;84;28582;-80
2022/11/20 09:36:43;;;;;;;84.97;34.08;;;;;;;4.50;63.73;98739.73;4134711;84;43617;-80
2022/11/20 09:43:02;;;;;;;82.57;34.33;;;;;;;4.64;62.41;98729.12;4156727;83;29113;-75
2022/11/20 09:49:27;;;;;;;84.22;35.00;;;;;;;4.48;63.51;98731.62;4141487;84;28570;-80
2022/11/20 09:55:30;;;;;;;89.40;35.50;;;;;;;4.54;63.59;98729.51;4142683;83;28565;-81
2022/11/20 10:01:36;;;;;;;85.87;36.25;;;;;;;4.58;63.25;98736.06;4173438;84;28505;-81
2022/11/20 10:07:43;;;;;;;87.10;36.25;;;;;;;4.55;63.55;98737.80;4171966;84;28552;-80
2022/11/20 10:14:29;;;;;;;82.22;34.03;;;;;;;5.02;63.94;98721.42;4152046;83;28547;-82
2022/11/20 10:20:55;;;;;;;84.67;36.08;;;;;;;5.20;62.47;98732.01;4135109;84;28555;-82
2022/11/20 10:27:05;;;;;;;86.65;36.40;;;;;;;5.14;62.97;98738.97;4138782;84;28538;-78
2022/11/20 10:33:23;;;;;;;85.35;35.63;;;;;;;5.56;62.55;98733.44;4187484;83;28523;-78
2022/11/20 10:40:00;;;;;;;87.30;36.30;;;;;;;5.27;63.20;98732.01;4197272;83;28527;-76
2022/11/20 10:46:10;;;;;;;94.55;38.60;;;;;;;5.29;63.53;98716.12;4123531;85;28501;-77
2022/11/20 10:52:29;;;;;;;92.55;39.38;;;;;;;5.43;63.34;98702.79;4207402;83;28586;-77
2022/11/20 10:59:00;;;;;;;94.47;38.25;;;;;;;5.31;63.48;98702.60;4186778;82;28538;-79
2022/11/20 11:05:27;;;;;;;85.32;36.45;;;;;;;5.78;62.48;98688.39;4104979;84;28559;-79
2022/11/20 11:11:33;;;;;;;88.85;36.83;;;;;;;6.10;60.78;98687.20;4185846;83;28569;-78
2022/11/20 11:17:34;;;;;;;94.47;38.70;;;;;;;6.50;60.44;98676.86;4203495;83;28605;-79
2022/11/20 11:23:40;;;;;;;97.17;41.63;;;;;;;6.84;59.97;98656.14;4206661;83;28647;-78
2022/11/20 11:29:42;;;;;;;;;;;;;;;7.30;58.78;98650.64;4125156;84;28482;-81
2022/11/20 11:35:53;;;;;;;93.50;39.88;;;;;;;7.24;58.93;98652.33;4116432;85;20230;-85
2022/11/20 11:41:56;;;;;;;103.58;41.92;;;;;;;7.34;58.48;98649.16;4088990;85;28507;-80
2022/11/20 11:48:00;;;;;;;98.00;40.25;;;;;;;7.39;58.99;98641.30;4102518;85;28553;-75
2022/11/20 11:54:06;;;;;;;97.22;40.17;;;;;;;7.25;58.38;98630.73;4132562;84;28551;-76
2022/11/20 12:00:19;;;;;;;99.65;40.05;;;;;;;7.09;59.37;98619.24;4135336;84;28613;-75
2022/11/20 12:06:21;;;;;;;90.97;39.20;;;;;;;7.23;59.48;98613.27;4145958;84;28530;-84
2022/11/20 12:12:36;;;;;;;87.27;37.73;;;;;;;7.13;59.57;98599.05;4138151;84;28559;-85
2022/11/20 12:18:38;;;;;;;;;;;;;;;6.80;59.67;98612.99;4138340;84;28551;-80
2022/11/20 12:25:23;;;;;;;87.88;37.58;;;;;;;6.63;60.02;98613.20;4193163;83;20271;-84
2022/11/20 12:31:30;;;;;;;88.00;36.77;;;;;;;7.44;58.75;98609.88;4094617;85;28521;-83
2022/11/20 12:37:46;;;;;;;82.42;37.13;;;;;;;7.50;58.17;98615.70;4170000;83;28532;-80
2022/11/20 12:50:41;;;;;;;87.12;38.20;;;;;;;6.94;59.94;98610.21;4112842;84;28549;-86
2022/11/20 12:57:22;;;;;;;75.87;34.83;;;;;;;7.33;58.90;98610.08;4119374;84;28544;-85
2022/11/20 13:03:43;;;;;;;78.75;35.35;;;;;;;7.13;59.43;98591.55;4132364;84;28507;-86
2022/11/20 13:09:51;;;;;;;82.37;36.75;;;;;;;7.16;59.90;98579.91;4114037;84;28593;-83
2022/11/20 13:16:17;;;;;;;87.27;36.38;;;;;;;7.38;59.46;98577.62;4105905;84;28625;-83
2022/11/20 13:22:28;;;;;;;83.43;36.90;;;;;;;7.51;59.72;98570.52;4126660;84;28536;-84
2022/11/20 13:28:31;;;;;;;86.55;37.00;;;;;;;7.07;59.94;98564.65;4143723;84;28559;-83
2022/11/20 13:34:32;;;;;;;81.53;37.00;;;;;;;7.39;59.87;98556.55;4133508;84;28522;-85
2022/11/20 13:40:47;;;;;;;81.00;37.70;;;;;;;6.61;61.17;98537.31;4133525;84;28503;-81
2022/11/20 13:46:49;;;;;;;74.80;34.47;;;;;;;6.52;62.27;98532.73;4123907;84;28565;-81
2022/11/20 13:53:20;;;;;;;73.05;34.18;;;;;;;5.82;63.29;98528.20;4163529;84;28577;-79
2022/11/20 13:59:40;;;;;;;74.42;33.88;;;;;;;6.09;62.83;98528.09;4149894;84;28575;-81
2022/11/20 14:06:02;;;;;;;74.40;32.80;;;;;;;5.82;63.85;98537.03;4161801;84;28517;-80
2022/11/20 14:12:08;;;;;;;82.40;34.90;;;;;;;5.65;64.67;98551.87;4136911;84;28507;-85
2022/11/20 14:18:21;;;;;;;81.63;34.25;;;;;;;6.17;63.76;98537.70;4155067;84;28577;-82
2022/11/20 14:24:24;;;;;;;87.65;36.42;;;;;;;6.34;63.40;98526.81;4131193;84;28508;-88
2022/11/20 14:30:50;;;;;;;80.28;34.73;;;;;;;5.43;66.05;98524.15;4180138;84;28598;-81
2022/11/20 14:37:04;;;;;;;82.22;35.13;;;;;;;5.36;66.79;98516.67;4149796;84;28555;-86
2022/11/20 14:43:27;;;;;;;72.75;32.33;;;;;;;5.00;70.17;98524.97;4186074;83;28530;-81
2022/11/20 14:49:31;;;;;;;78.15;34.63;;;;;;;5.08;69.54;98525.79;4104787;85;28523;-85
2022/11/20 14:55:37;;;;;;;76.02;32.80;;;;;;;4.76;72.77;98513.64;4186973;83;28609;-82
2022/11/20 15:01:38;;;;;;;86.20;36.97;;;;;;;4.10;76.92;98498.75;4181517;83;28482;-82
2022/11/20 15:07:46;;;;;;;79.10;34.20;;;;;;;4.24;78.44;98503.59;4165768;83;28572;-82
2022/11/20 15:13:47;;;;;;;82.17;34.55;;;;;;;4.68;75.54;98505.32;4182379;83;28534;-88
2022/11/20 15:20:04;;;;;;;82.78;35.15;;;;;;;3.96;79.00;98503.22;4126873;84;28539;-85
2022/11/20 15:26:12;;;;;;;84.35;35.25;;;;;;;4.08;79.72;98513.58;4118815;85;28516;-86
2022/11/20 15:32:15;;;;;;;85.03;34.78;;;;;;;3.79;83.08;98496.12;4126395;84;28534;-84
2022/11/20 15:38:16;;;;;;;85.65;36.05;;;;;;;3.94;82.03;98503.41;4109812;85;28571;-86
2022/11/20 15:44:18;;;;;;;83.27;35.30;;;;;;;4.16;82.77;98498.77;4197403;83;28555;-87
2022/11/20 15:50:21;;;;;;;85.65;37.15;;;;;;;4.25;81.25;98479.95;4185078;83;28523;-75
2022/11/20 15:56:44;;;;;;;91.92;40.30;;;;;;;4.39;80.64;98486.09;4106177;85;28526;-75
2022/11/20 16:02:45;;;;;;;88.45;40.05;;;;;;;4.49;80.26;98480.35;4128210;84;28687;-77
2022/11/20 16:08:48;;;;;;;88.35;38.23;;;;;;;4.51;80.68;98470.31;4125147;84;28620;-75
2022/11/20 16:21:14;;;;;;;88.12;39.38;;;;;;;4.41;79.81;98479.52;4129450;85;28567;-74
2022/11/20 16:27:15;;;;;;;83.55;38.08;;;;;;;5.32;74.69;98481.66;4127616;84;28547;-74
2022/11/20 16:33:17;;;;;;;80.30;36.70;;;;;;;5.29;75.10;98470.89;4114529;84;28563;-83
2022/11/20 16:39:19;;;;;;;83.78;36.53;;;;;;;5.28;74.66;98463.09;4128793;84;28540;-82
2022/11/20 16:45:21;;;;;;;87.82;38.23;;;;;;;5.34;74.13;98473.42;4117189;84;28546;-83
2022/11/20 16:51:25;;;;;;;89.72;39.25;;;;;;;5.44;74.07;98475.95;4117819;84;28620;-81
2022/11/20 16:57:32;;;;;;;89.62;38.92;;;;;;;5.24;75.50;98480.55;4114755;84;28583;-81
2022/11/20 17:03:34;;;;;;;84.37;37.53;;;;;;;5.32;75.10;98469.66;4162127;84;28544;-73
2022/11/20 17:09:35;;;;;;;86.12;38.63;;;;;;;5.62;72.45;98478.95;4088482;85;28586;-72
2022/11/20 17:15:39;;;;;;;84.47;38.60;;;;;;;5.47;72.93;98484.06;4150120;84;28529;-75
2022/11/20 17:21:42;;;;;;;86.97;38.33;;;;;;;5.61;73.22;98463.98;4155437;84;28520;-84
2022/11/20 17:27:56;;;;;;;83.78;36.95;;;;;;;5.31;74.92;98452.03;4144850;84;28635;-82
2022/11/20 17:34:21;;;;;;;83.30;37.08;;;;;;;5.44;73.98;98460.46;4149631;84;28577;-83
2022/11/20 17:40:50;;;;;;;84.00;38.20;;;;;;;5.45;73.81;98448.77;4127398;83;28676;-83
2022/11/20 17:46:57;;;;;;;86.90;37.35;;;;;;;5.06;76.85;98428.73;4075119;85;28541;-83
2022/11/20 17:53:09;;;;;;;92.50;41.00;;;;;;;4.85;78.46;98425.83;4061637;85;43697;-79
2022/11/20 17:59:13;;;;;;;89.28;39.88;;;;;;;4.79;79.32;98432.81;4142110;84;28516;-75
2022/11/20 18:05:15;;;;;;;87.53;39.15;;;;;;;5.18;76.29;98440.06;4084455;85;28508;-83
2022/11/20 18:11:22;;;;;;;89.45;38.38;;;;;;;5.56;74.48;98432.09;4112249;84;28529;-82
2022/11/20 18:17:26;;;;;;;86.85;38.73;;;;;;;5.44;73.78;98437.80;4166173;83;28511;-87
2022/11/20 18:23:40;;;;;;;100.15;42.93;;;;;;;5.56;72.44;98434.76;4154461;83;28604;-82
2022/11/20 18:29:46;;;;;;;92.57;40.70;;;;;;;5.49;73.67;98443.33;4139838;83;28625;-73
2022/11/20 18:35:51;;;;;;;86.17;39.67;;;;;;;5.53;72.41;98438.39;4110845;84;28596;-82
2022/11/20 18:48:14;;;;;;;89.13;38.78;;;;;;;5.12;73.13;98400.42;4099220;84;28512;-74
2022/11/20 18:54:18;;;;;;;88.25;38.55;;;;;;;5.17;72.96;98411.28;4118273;84;28515;-77
2022/11/20 19:00:22;;;;;;;83.07;37.48;;;;;;;5.08;73.75;98410.67;4122601;84;28485;-85
2022/11/20 19:06:26;;;;;;;87.50;39.40;;;;;;;5.17;71.95;98411.28;4095625;85;28499;-77
2022/11/20 19:12:27;;;;;;;89.10;38.40;;;;;;;4.80;73.36;98413.14;4150683;84;44440;-75
2022/11/20 19:18:34;;;;;;;88.58;39.10;;;;;;;4.63;72.42;98398.09;4073993;85;28545;-84
2022/11/20 19:24:37;;;;;;;90.80;38.83;;;;;;;4.41;74.96;98389.02;4164711;84;28643;-79
2022/11/20 19:30:41;;;;;;;85.42;38.90;;;;;;;4.49;75.05;98386.68;4160572;84;44396;-77
2022/11/20 19:36:44;;;;;;;90.38;40.17;;;;;;;3.75;78.87;98399.98;4154829;84;28510;-79
2022/11/20 19:42:48;;;;;;;94.85;41.25;;;;;;;3.96;79.65;98397.66;4149118;84;28550;-76
2022/11/20 19:48:52;;;;;;;95.55;39.92;;;;;;;4.18;78.47;98388.95;4150799;84;28492;-75
2022/11/20 19:54:53;;;;;;;93.67;39.50;;;;;;;4.09;78.37;98396.02;4079892;85;28586;-76
2022/11/20 20:00:55;;;;;;;90.70;39.27;;;;;;;3.87;78.74;98390.90;4050954;85;28562;-74
2022/11/20 20:06:58;;;;;;;85.42;37.73;;;;;;;3.96;81.21;98392.34;4162020;84;28595;-74
2022/11/20 20:12:59;;;;;;;84.55;37.65;;;;;;;3.78;75.69;98398.77;4103315;84;44294;-74
2022/11/20 20:19:03;;;;;;;82.90;37.50;;;;;;;4.02;73.12;98402.15;4030458;87;28560;-77
2022/11/20 20:25:07;;;;;;;85.62;38.13;;;;;;;3.74;74.26;98399.14;4020985;87;28595;-76
2022/11/20 20:31:12;;;;;;;81.85;35.43;;;;;;;4.12;74.01;98411.07;4030063;87;28623;-77
2022/11/20 20:37:13;;;;;;;86.80;37.13;;;;;;;4.34;70.98;98417.51;4016594;87;28509;-75
2022/11/20 20:43:20;;;;;;;80.25;36.00;;;;;;;4.37;69.81;98405.61;4034778;86;43461;-76
2022/11/20 20:49:21;;;;;;;;;;;;;;;4.42;69.07;98399.17;4042882;87;28521;-76
2022/11/20 20:55:23;;;;;;;86.35;36.65;;;;;;;4.44;70.66;98411.75;4019381;86;22462;-76
2022/11/20 21:01:27;;;;;;;83.12;35.88;;;;;;;4.65;70.34;98412.05;4075099;84;28587;-75
2022/11/20 21:07:29;;;;;;;82.33;36.28;;;;;;;4.56;70.58;98406.09;4129532;84;43802;-76
2022/11/20 21:13:31;;;;;;;81.92;37.03;;;;;;;4.86;69.42;98394.97;4141390;84;28503;-76
2022/11/20 21:19:36;;;;;;;84.80;37.40;;;;;;;4.79;69.96;98393.36;4165623;83;28567;-76
2022/11/20 21:25:39;;;;;;;95.53;39.92;;;;;;;4.67;70.01;98394.01;4112292;84;28512;-77
2022/11/20 21:31:40;;;;;;;91.63;39.88;;;;;;;4.99;69.85;98412.77;4110464;84;28548;-76
2022/11/20 21:37:43;;;;;;;84.65;39.18;;;;;;;5.25;68.81;98409.69;4166156;84;44324;-76
2022/11/20 21:43:44;;;;;;;90.25;39.70;;;;;;;5.21;70.03;98410.34;4151679;84;28553;-77
2022/11/20 21:49:46;;;;;;;89.20;38.33;;;;;;;5.53;69.59;98401.06;4180591;84;28483;-77
2022/11/20 21:55:54;;;;;;;82.60;38.58;;;;;;;5.71;68.91;98376.33;4181041;84;28492;-76
2022/11/20 22:01:55;;;;;;;89.87;39.92;;;;;;;5.63;69.16;98389.41;4172161;83;28525;-77
2022/11/20 22:07:58;;;;;;;93.40;40.73;;;;;;;5.91;68.32;98391.38;4180964;83;28541;-76
2022/11/20 22:20:20;;;;;;;91.90;40.40;;;;;;;5.56;70.01;98405.42;4117257;85;28491;-78
2022/11/20 22:26:33;;;;;;;92.82;40.52;;;;;;;5.78;69.50;98398.45;4065104;85;28511;-79
2022/11/20 22:32:35;;;;;;;91.70;40.85;;;;;;;5.69;70.44;98410.41;4189749;84;28494;-90
2022/11/20 22:38:50;;;;;;;94.05;39.95;;;;;;;5.86;69.48;98408.03;4150611;83;28489;-89
2022/11/20 22:44:52;;;;;;;87.37;39.73;;;;;;;5.90;69.71;98409.22;4120443;85;28550;-92
2022/11/20 22:51:08;;;;;;;93.25;42.10;;;;;;;5.61;71.05;98421.31;4221413;83;28616;-88
2022/11/20 22:57:12;;;;;;;88.78;42.27;;;;;;;5.75;71.77;98427.40;4195446;83;28576;-87
2022/11/20 23:03:19;;;;;;;86.08;40.45;;;;;;;5.88;70.63;98413.13;4176054;83;28525;-89
2022/11/20 23:09:21;;;;;;;102.40;45.88;;;;;;;6.03;70.46;98411.02;4175629;84;28546;-88
2022/11/20 23:15:23;;;;;;;95.57;42.05;;;;;;;5.58;72.67;98410.05;4104091;84;28514;-92
2022/11/20 23:21:26;;;;;;;98.45;41.77;;;;;;;5.70;71.98;98414.17;4116414;85;28516;-92
2022/11/20 23:27:28;;;;;;;93.03;42.88;;;;;;;6.11;70.33;98405.42;4170240;84;28517;-92
2022/11/20 23:33:30;;;;;;;84.90;39.18;;;;;;;6.43;69.28;98405.85;4126310;84;28586;-89
2022/11/20 23:39:32;;;;;;;94.85;41.90;;;;;;;6.35;69.12;98406.13;4089997;86;28492;-86
2022/11/20 23:45:38;;;;;;;95.30;41.60;;;;;;;5.95;71.84;98386.73;4148244;85;28573;-88
2022/11/20 23:51:43;;;;;;;95.97;41.45;;;;;;;6.04;73.59;98395.30;4131493;84;28526;-89
2022/11/20 23:57:44;;;;;;;92.20;40.48;;;;;;;6.40;70.71;98381.77;4151656;84;28550;-87
